Time;durP1;ratioP1;P1;durP2;ratioP2;P2;SDS_P1;SDS_P2;PMS_P1;PMS_P2;Temp;Humidity;BMP_temperature;BMP_pressure;BME280_temperature;BME280_humidity;BME280_pressure;Samples;Min_cycle;Max_cycle;Signal;HPM_P1;HPM_P2
2023/03/14 00:11:57;;;;;;;19.50;5.93;;;12.30;99.90;;;12.52;83.36;98671.22;5375418;22;20055;-71
2023/03/14 00:14:26;;;;;;;19.48;5.82;;;12.20;99.90;;;12.48;83.75;98685.53;5073048;28;20102;-71
2023/03/14 00:26:38;;;;;;;21.52;6.20;;;12.10;99.90;;;12.23;86.83;98667.25;5427819;22;20059;-69
2023/03/14 00:29:08;;;;;;;27.15;6.55;;;12.00;99.90;;;12.22;87.15;98691.19;5072236;28;20110;-69
2023/03/14 00:31:37;;;;;;;26.25;7.43;;;11.90;99.90;;;12.05;87.68;98672.56;5072693;28;20055;-69
2023/03/14 00:34:05;;;;;;;23.15;5.90;;;11.90;99.90;;;12.14;88.13;98688.88;5071225;28;20110;-69
2023/03/14 00:36:33;;;;;;;23.13;6.68;;;11.90;99.90;;;12.14;88.59;98680.06;5072514;28;20132;-69
2023/03/14 00:39:02;;;;;;;28.58;7.00;;;11.90;99.90;;;12.10;89.28;98673.22;5072710;28;20068;-69
2023/03/14 00:41:32;;;;;;;33.13;8.15;;;11.80;99.90;;;12.05;90.12;98678.72;5072678;28;20055;-69
2023/03/14 00:44:01;;;;;;;31.33;6.93;;;11.80;99.90;;;12.07;90.08;98674.22;5087808;28;20044;-68
2023/03/14 00:46:30;;;;;;;34.08;8.15;;;11.80;99.90;;;11.92;90.71;98664.31;5072481;28;20414;-69
2023/03/14 00:48:59;;;;;;;28.47;8.43;;;11.80;99.90;;;11.99;90.86;98692.22;5072569;28;20044;-69
2023/03/14 00:51:27;;;;;;;27.67;6.97;;;11.70;99.90;;;12.01;90.78;98692.16;5070994;28;20734;-69
2023/03/14 00:53:56;;;;;;;25.08;7.95;;;11.70;99.90;;;11.99;91.17;98680.78;5072184;28;20059;-69
2023/03/14 00:56:24;;;;;;;33.58;6.45;;;11.70;99.90;;;11.93;91.08;98700.47;5070693;28;20053;-69
2023/03/14 00:58:55;;;;;;;34.35;7.60;;;11.70;99.90;;;11.92;91.59;98700.53;5072005;28;20062;-69
2023/03/14 01:01:24;;;;;;;32.58;7.28;;;11.70;99.90;;;11.88;91.77;98694.50;5087123;28;20051;-69
2023/03/14 01:04:05;;;;;;;26.23;6.70;;;11.70;99.90;;;11.89;91.91;98696.22;5087718;28;20048;-69
2023/03/14 01:06:33;;;;;;;23.65;6.53;;;11.60;99.90;;;11.86;92.00;98708.75;5072088;28;20044;-69
2023/03/14 01:09:02;;;;;;;22.10;6.55;;;11.60;99.90;;;11.81;92.23;98706.28;5087340;28;20091;-69
2023/03/14 01:11:33;;;;;;;23.77;6.68;;;11.60;99.90;;;11.86;92.29;98706.97;5070467;28;20040;-69
2023/03/14 01:14:02;;;;;;;24.10;6.50;;;11.60;99.90;;;11.85;92.70;98694.63;5071715;28;20055;-69
2023/03/14 01:16:33;;;;;;;21.50;6.15;;;11.60;99.90;;;11.90;92.29;98690.00;5071951;28;20041;-69
2023/03/14 01:19:04;;;;;;;24.58;6.65;;;11.60;99.90;;;11.88;92.09;98683.06;5071943;28;20127;-69
2023/03/14 01:21:35;;;;;;;22.42;6.55;;;11.70;99.90;;;11.85;92.21;98662.84;5072044;28;20040;-69
2023/03/14 01:24:06;;;;;;;23.85;6.65;;;11.60;99.90;;;11.83;92.06;98659.41;5072291;28;20048;-69
2023/03/14 01:26:36;;;;;;;20.73;6.07;;;11.60;99.90;;;11.83;92.11;98656.75;5087215;28;20048;-69
2023/03/14 01:29:06;;;;;;;21.23;6.47;;;11.60;99.90;;;11.87;92.07;98668.06;5070558;28;20074;-69
2023/03/14 01:31:37;;;;;;;25.45;6.72;;;11.60;99.90;;;11.95;91.95;98684.47;5087209;28;20429;-69
2023/03/14 01:34:07;;;;;;;25.35;6.68;;;11.60;99.90;;;11.80;92.17;98678.09;5070178;28;20534;-69
2023/03/14 01:36:36;;;;;;;33.20;6.80;;;11.60;99.90;;;11.88;91.99;98683.06;5070543;28;20053;-69
2023/03/14 01:39:07;;;;;;;21.60;6.40;;;11.60;99.90;;;11.78;92.04;98672.88;5070292;28;20055;-69
2023/03/14 01:41:36;;;;;;;20.40;6.05;;;11.60;99.90;;;11.85;92.05;98684.03;5072069;28;20052;-69
2023/03/14 01:44:04;;;;;;;25.25;6.97;;;11.60;99.90;;;11.85;92.07;98678.75;5070617;28;20045;-69
2023/03/14 01:46:40;;;;;;;21.52;6.43;;;11.60;99.90;;;11.85;91.88;98686.69;5070448;28;20105;-69
2023/03/14 01:49:17;;;;;;;24.88;6.03;;;11.60;99.90;;;11.90;91.78;98675.91;5087319;28;20062;-69
2023/03/14 01:51:58;;;;;;;21.48;6.65;;;11.70;99.90;;;11.87;91.63;98684.81;5070400;28;20151;-70
2023/03/14 01:54:30;;;;;;;19.75;5.38;;;11.60;99.90;;;11.95;91.92;98687.13;5086879;28;20130;-70
2023/03/14 01:57:05;;;;;;;20.17;6.00;;;11.70;99.90;;;12.06;91.49;98688.38;5086744;28;20067;-69
2023/03/14 01:59:35;;;;;;;26.58;6.65;;;11.70;99.90;;;11.97;91.53;98693.22;5086901;28;20049;-71
2023/03/14 02:02:07;;;;;;;19.37;5.93;;;11.80;99.90;;;11.93;91.34;98666.03;5069872;28;20091;-69
2023/03/14 02:04:38;;;;;;;21.63;5.70;;;11.70;99.90;;;11.91;91.54;98672.31;5069846;28;20062;-70
2023/03/14 02:07:10;;;;;;;;;;;11.70;99.90;;;11.84;91.68;98663.78;5087006;28;20097;-71
2023/03/14 02:09:44;;;;;;;28.48;6.50;;;11.70;99.90;;;11.88;91.82;98672.47;5069524;28;19928;-69
2023/03/14 02:12:21;;;;;;;19.00;6.20;;;11.70;99.90;;;11.87;91.78;98654.81;5086610;28;20053;-69
2023/03/14 02:14:55;;;;;;;20.30;6.20;;;11.60;99.90;;;11.90;91.98;98655.56;5071008;28;20048;-69
2023/03/14 02:17:46;;;;;;;19.73;6.10;;;11.60;99.90;;;11.87;91.73;98634.50;5049262;28;20052;-69
2023/03/14 02:20:34;;;;;;;15.23;6.63;;;11.60;99.90;;;11.76;91.85;98640.31;5071086;28;20125;-70
2023/03/14 02:23:03;;;;;;;22.10;6.20;;;11.60;99.90;;;11.85;91.76;98639.00;5071023;28;20361;-69
2023/03/14 02:25:41;;;;;;;16.98;5.85;;;11.60;99.90;;;11.88;91.61;98651.25;5069321;28;20139;-69
2023/03/14 02:28:12;;;;;;;18.75;5.72;;;11.60;99.90;;;11.92;91.65;98637.81;5070786;28;20047;-69
2023/03/14 02:30:41;;;;;;;16.08;5.35;;;11.70;99.90;;;11.93;91.48;98644.81;5069493;28;20071;-67
2023/03/14 02:33:13;;;;;;;15.57;5.80;;;11.70;99.90;;;11.98;91.76;98657.88;5070815;28;20048;-67
2023/03/14 02:35:48;;;;;;;16.40;5.38;;;11.70;99.90;;;11.98;91.81;98640.16;5086152;28;20418;-67
2023/03/14 02:38:25;;;;;;;13.07;5.80;;;11.80;99.90;;;11.90;91.81;98657.34;5086007;28;20105;-67
2023/03/14 02:40:54;;;;;;;15.52;5.45;;;11.70;99.90;;;11.93;91.76;98649.25;5070656;28;20059;-67
2023/03/14 02:43:24;;;;;;;18.17;5.95;;;11.60;99.90;;;11.86;91.98;98637.22;5069292;28;20044;-67
2023/03/14 02:45:58;;;;;;;17.35;7.07;;;11.60;99.90;;;11.81;92.04;98618.06;5070835;28;20455;-67
2023/03/14 02:48:29;;;;;;;14.95;6.07;;;11.60;99.90;;;11.79;92.47;98657.81;5086082;28;20531;-67
2023/03/14 02:51:00;;;;;;;15.20;6.13;;;11.60;99.90;;;11.83;92.41;98634.75;5070550;28;20052;-67
2023/03/14 02:53:32;;;;;;;18.40;6.13;;;11.60;99.90;;;11.82;92.77;98635.66;5069050;28;20829;-67
2023/03/14 02:56:07;;;;;;;16.77;5.78;;;11.50;99.90;;;11.78;92.80;98630.50;5085947;28;20143;-67
2023/03/14 02:58:39;;;;;;;19.23;5.82;;;11.50;99.90;;;11.84;92.62;98633.78;5086339;28;20100;-67
2023/03/14 03:01:35;;;;;;;21.55;6.75;;;11.60;99.90;;;11.91;92.49;98620.19;5069508;28;20383;-67
2023/03/14 03:04:04;;;;;;;23.30;6.88;;;11.60;99.90;;;11.82;92.75;98617.09;5068915;28;20084;-67
2023/03/14 03:06:32;;;;;;;20.90;6.45;;;11.60;99.90;;;11.88;92.83;98612.41;5068904;28;20041;-67
2023/03/14 03:09:01;;;;;;;22.27;7.57;;;11.60;99.90;;;11.85;92.61;98623.13;5068843;28;20132;-67
2023/03/14 03:11:31;;;;;;;18.15;6.35;;;11.60;99.90;;;11.91;92.51;98617.53;5085778;28;20052;-67
2023/03/14 03:14:01;;;;;;;22.38;6.88;;;11.60;99.90;;;11.93;92.24;98614.81;5068965;28;20125;-67
2023/03/14 03:16:30;;;;;;;;;;;11.60;99.90;;;11.86;92.48;98614.25;5070427;28;20098;-67
2023/03/14 03:18:58;;;;;;;20.30;6.90;;;11.60;99.90;;;11.88;92.46;98614.19;5068934;28;19994;-67
2023/03/14 03:21:27;;;;;;;17.80;6.47;;;11.60;99.90;;;11.84;92.38;98608.19;5068780;28;20044;-68
2023/03/14 03:23:55;;;;;;;17.02;6.05;;;11.60;99.90;;;11.89;92.48;98606.16;5072565;28;20123;-67
2023/03/14 03:26:23;;;;;;;15.88;5.47;;;11.60;99.90;;;11.87;92.37;98600.06;5073623;28;20131;-67
2023/03/14 03:28:52;;;;;;;18.98;6.35;;;11.60;99.90;;;11.89;92.21;98614.09;5089290;28;20419;-67
2023/03/14 03:31:22;;;;;;;16.80;6.50;;;11.70;99.90;;;11.87;92.17;98608.03;5072561;28;20080;-67
2023/03/14 03:33:51;;;;;;;21.08;6.53;;;11.70;99.90;;;11.88;92.28;98627.44;5073974;28;20055;-67
2023/03/14 03:36:23;;;;;;;15.73;5.80;;;11.60;99.90;;;11.82;92.61;98617.09;5073518;28;20360;-67
2023/03/14 03:38:52;;;;;;;19.13;6.63;;;11.60;99.90;;;11.72;92.65;98583.13;5073715;28;20060;-67
2023/03/14 03:41:20;;;;;;;21.80;6.40;;;11.60;99.90;;;11.81;92.59;98605.66;5088968;28;20048;-67
2023/03/14 03:43:50;;;;;;;24.33;6.55;;;11.60;99.90;;;11.91;92.51;98608.72;5072425;28;20107;-67
2023/03/14 03:46:19;;;;;;;16.83;6.40;;;11.60;99.90;;;11.87;92.66;98605.38;5073623;28;20526;-67
2023/03/14 03:48:49;;;;;;;17.92;6.07;;;11.60;99.90;;;11.77;92.88;98596.13;5072117;28;20051;-67
2023/03/14 03:51:18;;;;;;;19.92;6.93;;;11.60;99.90;;;11.85;93.06;98611.66;5073500;28;20079;-68
2023/03/14 03:53:48;;;;;;;17.50;5.97;;;11.60;99.90;;;11.87;93.18;98613.31;5088857;28;20139;-67
2023/03/14 03:56:20;;;;;;;16.85;5.60;;;11.60;99.90;;;11.88;93.15;98609.75;5072183;28;20052;-67
2023/03/14 03:58:49;;;;;;;19.58;6.00;;;11.60;99.90;;;11.84;93.25;98613.47;5073568;28;20131;-67
2023/03/14 04:01:17;;;;;;;16.05;5.63;;;11.60;99.90;;;11.72;93.54;98604.28;5072104;28;20131;-67
2023/03/14 04:03:51;;;;;;;15.70;6.30;;;11.50;99.90;;;11.79;94.08;98623.41;5072275;28;20044;-67
2023/03/14 04:06:20;;;;;;;21.48;6.07;;;11.50;99.90;;;11.84;94.44;98621.41;5071951;28;20052;-67
2023/03/14 04:08:50;;;;;;;19.45;5.63;;;11.60;99.90;;;11.77;95.06;98619.94;5089120;28;20067;-67
2023/03/14 04:11:29;;;;;;;20.15;6.18;;;11.50;99.90;;;11.79;95.93;98623.41;5088976;28;20040;-67
2023/03/14 04:14:12;;;;;;;18.20;6.32;;;11.50;99.90;;;11.82;96.87;98617.09;5073340;28;20151;-67
2023/03/14 04:16:40;;;;;;;18.30;5.55;;;11.50;99.90;;;11.71;97.71;98618.44;5088577;28;20056;-68
2023/03/14 04:19:14;;;;;;;18.50;5.97;;;11.40;99.90;;;11.66;98.49;98612.50;5071822;28;20547;-67
2023/03/14 04:21:44;;;;;;;17.33;6.00;;;11.40;99.90;;;11.65;98.49;98612.56;5071944;28;20058;-68
2023/03/14 04:24:13;;;;;;;18.02;5.65;;;11.40;99.90;;;11.63;98.97;98603.81;5071876;28;20056;-67
2023/03/14 04:26:45;;;;;;;21.73;6.38;;;11.40;99.90;;;11.67;99.30;98608.09;5071636;28;20048;-67
2023/03/14 04:29:13;;;;;;;14.68;5.35;;;11.30;99.90;;;11.57;99.51;98615.56;5072088;28;20349;-67
2023/03/14 04:31:44;;;;;;;17.20;6.22;;;11.30;99.90;;;11.57;99.99;98612.91;5072019;28;20131;-68
2023/03/14 04:34:14;;;;;;;19.05;5.97;;;11.30;99.90;;;11.59;100.00;98610.19;5071300;28;20053;-67
2023/03/14 04:36:50;;;;;;;18.13;5.97;;;11.30;99.90;;;11.60;100.00;98614.53;5071365;28;20057;-68
2023/03/14 04:39:24;;;;;;;15.55;5.72;;;11.30;99.90;;;11.56;100.00;98608.53;5071514;28;20157;-67
2023/03/14 04:42:00;;;;;;;13.60;5.55;;;11.30;99.90;;;11.60;100.00;98604.81;5071301;28;20049;-67
2023/03/14 04:44:29;;;;;;;16.15;6.28;;;11.30;99.90;;;11.58;100.00;98606.66;5072757;28;20483;-67
2023/03/14 04:46:58;;;;;;;15.43;5.90;;;11.30;99.90;;;11.54;100.00;98602.44;5071482;28;20056;-68
2023/03/14 04:49:28;;;;;;;18.23;6.15;;;11.20;99.90;;;11.59;100.00;98605.72;5071252;28;20495;-67
2023/03/14 04:51:56;;;;;;;11.63;5.83;;;11.30;99.90;;;11.54;100.00;98604.22;5087977;28;20059;-68
2023/03/14 04:54:26;;;;;;;9.23;5.00;;;11.30;99.90;;;11.46;100.00;98596.63;5071019;28;20287;-70
2023/03/14 04:56:58;;;;;;;14.18;5.85;;;11.20;99.90;;;11.41;100.00;98590.69;5070919;28;20047;-68
2023/03/14 04:59:30;;;;;;;14.90;6.05;;;11.20;99.90;;;11.47;100.00;98593.06;5070811;28;20041;-68
2023/03/14 05:02:05;;;;;;;11.93;5.55;;;11.20;99.90;;;11.48;100.00;98593.88;5087775;28;20338;-68
2023/03/14 05:04:47;;;;;;;17.17;6.07;;;11.20;99.90;;;11.41;100.00;98595.97;5070694;28;20211;-67
2023/03/14 05:07:35;;;;;;;11.43;5.72;;;11.20;99.90;;;11.50;100.00;98607.91;5072283;28;20118;-67
2023/03/14 05:10:26;;;;;;;13.45;5.85;;;11.20;99.90;;;11.47;100.00;98602.78;5052129;28;20080;-68
2023/03/14 05:13:10;;;;;;;16.05;5.70;;;11.20;99.90;;;11.51;100.00;98609.66;5087370;28;20045;-69
2023/03/14 05:16:07;;;;;;;9.75;5.93;;;11.20;99.90;;;11.57;100.00;98609.38;5047909;28;20151;-69
2023/03/14 05:18:57;;;;;;;12.32;5.88;;;11.30;99.90;;;11.54;100.00;98651.84;5070309;28;20415;-70
2023/03/14 05:21:53;;;;;;;16.98;5.25;;;11.30;99.90;;;10.92;100.00;98662.47;5055472;28;20071;-67
2023/03/14 05:24:37;;;;;;;22.75;5.18;;;10.80;99.90;;;10.33;100.00;98656.97;5087401;28;20522;-68
2023/03/14 05:27:37;;;;;;;13.48;4.60;;;10.30;99.90;;;9.88;100.00;98662.16;5048128;28;20068;-67
2023/03/14 05:30:25;;;;;;;18.05;4.95;;;9.80;99.90;;;9.76;100.00;98652.06;5071956;28;20044;-68
2023/03/14 05:33:13;;;;;;;18.00;5.35;;;9.60;99.90;;;9.63;100.00;98663.97;5070254;28;20045;-68
2023/03/14 05:35:59;;;;;;;15.85;4.82;;;9.50;99.90;;;9.60;100.00;98674.63;5071603;28;20625;-68
2023/03/14 05:38:32;;;;;;;18.35;5.13;;;9.40;99.90;;;9.50;100.00;98693.50;5071662;28;20041;-67
2023/03/14 05:41:26;;;;;;;20.35;5.35;;;9.40;99.90;;;9.49;100.00;98687.34;5069213;28;20152;-68
2023/03/14 05:44:13;;;;;;;15.13;5.65;;;9.40;99.90;;;9.41;100.00;98707.00;5071797;28;20060;-68
2023/03/14 05:47:02;;;;;;;15.38;4.35;;;9.20;99.90;;;9.25;100.00;98705.81;5059668;28;20057;-68
2023/03/14 05:49:38;;;;;;;18.95;5.28;;;9.10;99.90;;;9.15;100.00;98713.16;5087120;28;20106;-68
2023/03/14 05:52:25;;;;;;;17.10;5.95;;;9.00;99.90;;;9.11;100.00;98711.53;5071588;28;20070;-68
2023/03/14 05:55:13;;;;;;;21.45;5.65;;;9.00;99.90;;;9.13;100.00;98722.91;5086930;28;20047;-68
2023/03/14 05:58:04;;;;;;;15.27;5.57;;;9.00;99.90;;;9.18;100.00;98741.19;5071687;28;20121;-68
2023/03/14 06:00:45;;;;;;;16.90;4.95;;;8.90;99.90;;;9.21;100.00;98739.34;5086705;28;20117;-67
2023/03/14 06:03:29;;;;;;;20.67;4.85;;;9.00;99.90;;;9.16;100.00;98751.78;5086871;28;20131;-68
2023/03/14 06:05:58;;;;;;;17.27;4.40;;;9.00;99.90;;;8.97;100.00;98758.59;5071057;28;20441;-68
2023/03/14 06:08:27;;;;;;;17.77;4.78;;;8.90;99.90;;;8.99;100.00;98759.41;5071169;28;20372;-68
2023/03/14 06:10:58;;;;;;;13.57;5.25;;;8.90;99.90;;;8.86;100.00;98731.72;5069444;28;20137;-68
2023/03/14 06:13:31;;;;;;;10.52;4.53;;;8.80;99.90;;;9.04;100.00;98768.00;5070895;28;20407;-67
2023/03/14 06:15:59;;;;;;;13.63;5.13;;;8.80;99.90;;;9.02;100.00;98761.91;5086485;28;20050;-69
2023/03/14 06:18:28;;;;;;;8.60;4.40;;;8.90;99.90;;;8.98;100.00;98768.22;5069347;28;20040;-68
2023/03/14 06:20:57;;;;;;;6.43;3.83;;;8.80;99.90;;;8.78;100.00;98768.84;5069712;28;20060;-68
2023/03/14 06:23:30;;;;;;;11.65;5.15;;;8.60;99.90;;;8.79;100.00;98789.00;5086186;28;20048;-68
2023/03/14 06:26:00;;;;;;;15.38;4.72;;;8.70;99.90;;;8.87;100.00;98796.69;5086095;28;20070;-67
2023/03/14 06:28:29;;;;;;;13.80;5.03;;;8.70;99.90;;;8.70;100.00;98804.25;5085926;28;20365;-68
2023/03/14 06:31:01;;;;;;;10.65;4.38;;;8.60;99.90;;;7.98;100.00;98689.59;5069310;28;20074;-68
2023/03/14 06:33:36;;;;;;;11.10;5.32;;;8.50;99.90;;;8.74;100.00;98826.97;5086253;28;20053;-68
2023/03/14 06:36:06;;;;;;;20.10;5.07;;;8.50;99.90;;;8.67;100.00;98825.44;5086097;28;20135;-68
2023/03/14 06:38:35;;;;;;;15.63;5.00;;;8.50;99.90;;;8.81;100.00;98839.03;5069159;28;20075;-68
2023/03/14 06:41:08;;;;;;;16.02;5.30;;;8.60;99.90;;;8.85;100.00;98848.56;5069463;28;20480;-68
2023/03/14 06:43:42;;;;;;;16.83;5.65;;;8.60;99.90;;;8.80;100.00;98854.00;5069334;28;20063;-67
2023/03/14 06:46:10;;;;;;;20.17;6.28;;;8.70;99.90;;;8.83;100.00;98868.84;5069172;28;20147;-68
2023/03/14 06:48:41;;;;;;;;;;;8.60;99.90;;;8.87;100.00;98873.13;5086402;28;20061;-68
2023/03/14 06:51:09;;;;;;;23.27;5.68;;;8.60;99.90;;;8.89;100.00;98877.44;5069022;28;19946;-67
2023/03/14 06:53:38;;;;;;;18.98;5.60;;;8.70;99.90;;;8.97;100.00;98888.63;5069378;28;20135;-67
2023/03/14 06:56:10;;;;;;;23.83;5.88;;;8.70;99.90;;;8.95;100.00;98895.72;5069308;28;20074;-68
2023/03/14 06:58:38;;;;;;;20.95;5.68;;;8.80;99.90;;;8.87;100.00;98889.81;5071341;28;20044;-67
2023/03/14 07:01:23;;;;;;;18.20;5.82;;;8.80;99.90;;;8.72;100.00;98881.47;5073515;28;20055;-68
2023/03/14 07:03:52;;;;;;;16.25;5.05;;;8.80;99.90;;;8.98;100.00;98921.13;5073321;28;20117;-67
2023/03/14 07:06:22;;;;;;;19.27;5.85;;;8.80;99.90;;;8.75;100.00;98910.41;5073573;28;20052;-67
2023/03/14 07:08:50;;;;;;;27.02;5.70;;;8.70;99.90;;;8.99;100.00;98933.41;5073316;28;20055;-67
2023/03/14 07:11:20;;;;;;;32.22;6.35;;;8.80;99.90;;;8.78;100.00;98939.28;5073488;28;20587;-67
2023/03/14 07:13:49;;;;;;;21.20;6.05;;;8.70;99.90;;;8.91;100.00;98957.34;5073726;28;20082;-67
2023/03/14 07:16:17;;;;;;;20.90;5.85;;;8.70;99.90;;;8.76;100.00;98959.56;5074877;28;20102;-68
2023/03/14 07:18:46;;;;;;;21.35;5.60;;;8.60;99.90;;;8.95;100.00;98968.66;5074490;28;20041;-67
2023/03/14 07:21:16;;;;;;;16.80;5.17;;;8.70;99.90;;;8.80;100.00;98971.75;5073169;28;20113;-68
2023/03/14 07:23:44;;;;;;;10.45;5.28;;;8.70;99.90;;;8.79;100.00;98988.44;5074422;28;20333;-67
2023/03/14 07:26:14;;;;;;;16.48;5.13;;;8.60;99.90;;;8.83;100.00;99004.16;5072954;28;20060;-67
2023/03/14 07:28:48;;;;;;;11.02;4.90;;;8.70;99.90;;;8.72;100.00;98985.13;5089720;28;20444;-67
2023/03/14 07:31:19;;;;;;;18.05;4.90;;;8.70;99.90;;;8.66;100.00;99021.31;5073128;28;20477;-64
2023/03/14 07:33:49;;;;;;;10.90;4.78;;;8.50;99.90;;;8.84;100.00;99029.59;5072877;28;20040;-67
2023/03/14 07:36:18;;;;;;;16.08;5.45;;;8.60;99.90;;;8.95;100.00;99032.81;5072522;28;20044;-67
2023/03/14 07:38:48;;;;;;;14.10;5.45;;;8.80;99.90;;;9.06;100.00;99053.59;5072543;28;20048;-68
2023/03/14 07:41:45;;;;;;;11.30;4.40;;;8.90;99.90;;;8.96;100.00;99065.31;5060288;28;20063;-69
2023/03/14 07:44:27;;;;;;;16.95;4.53;;;8.90;99.90;;;9.32;100.00;99082.75;5074156;28;20134;-69
2023/03/14 07:46:56;;;;;;;17.10;5.28;;;9.10;99.90;;;9.45;100.00;99099.09;5073839;28;20093;-69
2023/03/14 07:49:25;;;;;;;13.00;4.95;;;9.20;99.90;;;9.26;100.00;99108.44;5073784;28;20047;-69
2023/03/14 07:51:53;;;;;;;15.43;4.90;;;9.20;99.90;;;9.18;100.00;99121.84;5072122;28;20084;-70
2023/03/14 07:54:22;;;;;;;18.02;5.82;;;9.10;99.90;;;9.14;100.00;99138.63;5073660;28;20052;-69
2023/03/14 07:56:51;;;;;;;19.45;5.63;;;9.10;99.90;;;9.13;100.00;99141.31;5072202;28;20044;-67
2023/03/14 07:59:22;;;;;;;16.13;5.15;;;9.00;99.90;;;9.24;100.00;99149.81;5073469;28;20098;-67
2023/03/14 08:01:54;;;;;;;19.13;5.72;;;9.10;99.90;;;9.22;99.96;99163.03;5088830;28;20049;-68
2023/03/14 08:04:24;;;;;;;18.13;5.30;;;9.10;99.90;;;9.09;99.69;99178.34;5073420;28;20509;-68
2023/03/14 08:06:54;;;;;;;;;;;9.00;99.90;;;9.17;99.38;99186.06;5089179;28;20059;-67
2023/03/14 08:09:22;;;;;;;15.80;4.97;;;9.10;99.90;;;9.20;99.32;99195.63;5073309;28;19930;-67
2023/03/14 08:11:52;;;;;;;16.40;5.00;;;9.10;99.90;;;9.24;99.19;99203.44;5073220;28;20045;-69
2023/03/14 08:14:23;;;;;;;11.77;4.73;;;9.20;99.90;;;9.06;97.45;99220.59;5073433;28;20040;-68
2023/03/14 08:16:54;;;;;;;7.53;3.92;;;9.10;99.90;;;9.03;96.38;99219.81;5088610;28;20383;-65
2023/03/14 08:19:23;;;;;;;7.80;4.15;;;9.00;99.90;;;8.95;96.33;99233.19;5073402;28;20040;-68
2023/03/14 08:21:51;;;;;;;16.70;4.70;;;8.90;99.90;;;9.02;95.41;99252.34;5072992;28;20037;-67
2023/03/14 08:24:20;;;;;;;14.63;4.82;;;8.90;99.90;;;9.12;96.00;99266.19;5073093;28;20135;-64
2023/03/14 08:26:48;;;;;;;15.00;4.78;;;9.00;99.90;;;9.20;95.68;99280.91;5072770;28;20067;-64
2023/03/14 08:29:16;;;;;;;26.05;6.00;;;9.10;99.90;;;9.22;95.37;99294.06;5072988;28;20052;-67
2023/03/14 08:31:45;;;;;;;12.57;4.72;;;9.10;99.90;;;9.25;94.81;99305.44;5073464;28;20411;-69
2023/03/14 08:34:15;;;;;;;11.63;4.82;;;9.10;99.90;;;9.12;94.91;99319.78;5073067;28;20153;-68
2023/03/14 08:36:43;;;;;;;14.05;4.70;;;9.10;99.90;;;8.91;93.71;99331.72;5072998;28;20094;-66
2023/03/14 08:39:12;;;;;;;12.55;5.20;;;8.90;99.90;;;8.91;93.68;99349.28;5071356;28;20049;-65
2023/03/14 08:41:42;;;;;;;18.30;5.30;;;8.80;99.90;;;8.84;93.50;99351.22;5071261;28;20130;-65
2023/03/14 08:44:12;;;;;;;19.88;4.78;;;8.70;99.90;;;8.81;91.79;99380.25;5072872;28;20041;-65
2023/03/14 08:46:40;;;;;;;16.02;5.60;;;8.80;99.90;;;8.87;90.33;99374.84;5072749;28;20071;-66
2023/03/14 08:49:09;;;;;;;12.70;4.75;;;8.80;99.90;;;9.06;89.75;99377.94;5072834;28;20079;-68
2023/03/14 08:51:38;;;;;;;16.63;5.68;;;8.90;99.90;;;9.17;88.41;99390.91;5072646;28;20066;-67
2023/03/14 08:54:07;;;;;;;15.93;4.77;;;9.00;99.90;;;9.17;86.65;99396.19;5072524;28;20127;-66
2023/03/14 08:56:37;;;;;;;14.90;5.47;;;9.10;99.90;;;9.22;85.24;99408.34;5072414;28;20169;-66
2023/03/14 08:59:06;;;;;;;13.88;5.38;;;9.20;99.90;;;9.34;84.04;99423.91;5070924;28;20044;-66
2023/03/14 09:01:35;;;;;;;20.50;5.68;;;9.30;99.90;;;9.35;82.89;99430.06;5072435;28;20049;-66
2023/03/14 09:04:03;;;;;;;18.60;6.22;;;9.20;99.90;;;9.32;82.33;99441.56;5072223;28;20036;-64
2023/03/14 09:06:31;;;;;;;21.42;6.30;;;9.20;99.90;;;9.48;81.68;99444.72;5072145;28;20423;-66
2023/03/14 09:09:01;;;;;;;23.90;6.45;;;9.30;99.90;;;9.59;81.52;99475.22;5070569;28;20478;-66
2023/03/14 09:11:30;;;;;;;25.97;6.50;;;9.50;99.90;;;9.68;81.23;99458.28;5072134;28;20036;-64
2023/03/14 09:13:58;;;;;;;25.50;6.00;;;9.60;99.90;;;9.67;81.01;99465.38;5072127;28;20385;-66
2023/03/14 09:16:27;;;;;;;27.98;7.20;;;9.60;99.90;;;9.53;80.84;99458.66;5071855;28;20496;-65
2023/03/14 09:18:59;;;;;;;25.63;6.00;;;9.60;99.90;;;9.87;80.99;99484.22;5071686;28;20458;-66
2023/03/14 09:21:27;;;;;;;25.08;6.38;;;9.70;99.90;;;9.93;80.11;99494.66;5071219;28;20138;-66
2023/03/14 09:23:56;;;;;;;25.02;6.63;;;9.80;99.90;;;9.82;79.65;99511.66;5071736;28;20105;-67
2023/03/14 09:26:26;;;;;;;30.42;7.18;;;9.70;99.90;;;9.86;79.36;99518.59;5071996;28;20063;-66
2023/03/14 09:28:54;;;;;;;27.27;6.97;;;9.70;99.90;;;10.03;79.20;99530.50;5071483;28;20135;-67
2023/03/14 09:31:25;;;;;;;25.73;7.15;;;9.90;99.90;;;10.06;78.49;99549.84;5071630;28;20279;-68
2023/03/14 09:33:54;;;;;;;31.98;7.15;;;10.00;99.90;;;10.03;78.86;99564.84;5071492;28;20114;-67
2023/03/14 09:36:22;;;;;;;21.73;6.55;;;9.90;99.90;;;9.66;80.14;99571.84;5071360;28;20041;-66
2023/03/14 09:38:50;;;;;;;22.63;6.38;;;9.60;99.90;;;9.78;80.94;99586.56;5071636;28;20421;-66
2023/03/14 09:41:26;;;;;;;32.20;8.10;;;9.60;99.90;;;9.47;82.57;99588.97;5071262;28;20053;-66
2023/03/14 09:44:04;;;;;;;23.08;6.53;;;9.40;99.90;;;9.36;81.76;99598.88;5071361;28;20453;-67
2023/03/14 09:46:34;;;;;;;27.92;6.63;;;9.30;99.90;;;9.35;81.67;99602.41;5071592;28;20049;-65
2023/03/14 09:49:03;;;;;;;18.98;5.88;;;9.30;99.90;;;9.06;80.85;99605.63;5071214;28;20118;-66
2023/03/14 09:51:32;;;;;;;19.40;5.93;;;9.10;99.90;;;9.15;80.89;99615.13;5071223;28;20036;-66
2023/03/14 09:54:02;;;;;;;32.53;6.67;;;9.10;99.90;;;9.30;81.67;99630.66;5071364;28;20131;-66
2023/03/14 09:56:34;;;;;;;35.55;7.20;;;9.20;99.90;;;9.33;81.95;99646.44;5071171;28;20519;-66
2023/03/14 09:59:06;;;;;;;28.55;7.00;;;9.20;99.90;;;9.43;81.55;99642.72;5071122;28;20068;-66
2023/03/14 10:01:35;;;;;;;31.95;7.20;;;9.30;99.90;;;9.45;81.02;99646.19;5086691;28;20500;-65
2023/03/14 10:04:08;;;;;;;33.53;7.72;;;9.30;99.90;;;9.63;80.32;99661.69;5071061;28;20066;-67
2023/03/14 10:06:36;;;;;;;32.45;7.55;;;9.50;99.90;;;9.63;81.24;99677.53;5070998;28;20052;-66
2023/03/14 10:09:05;;;;;;;39.78;7.85;;;9.50;99.90;;;9.69;79.78;99682.69;5071099;28;20040;-66
2023/03/14 10:11:35;;;;;;;27.88;8.10;;;9.60;99.90;;;9.82;79.32;99691.22;5069566;28;20068;-66
2023/03/14 10:14:07;;;;;;;44.87;7.97;;;9.70;99.90;;;9.90;79.11;99703.38;5071113;28;20177;-66
2023/03/14 10:16:41;;;;;;;36.28;7.82;;;9.80;99.90;;;9.94;79.11;99699.75;5071038;28;20344;-66
2023/03/14 10:19:14;;;;;;;32.65;7.97;;;9.90;99.90;;;9.50;78.37;99660.19;5071109;28;20044;-66
2023/03/14 10:21:44;;;;;;;36.47;7.75;;;9.70;99.90;;;9.87;77.99;99729.81;5071279;28;20049;-65
2023/03/14 10:24:23;;;;;;;38.55;8.02;;;9.80;99.90;;;9.75;76.67;99735.38;5071144;28;20044;-66
2023/03/14 10:26:54;;;;;;;41.38;8.48;;;9.80;99.90;;;9.61;76.58;99742.66;5071124;28;20076;-66
2023/03/14 10:29:23;;;;;;;40.67;8.07;;;9.60;99.90;;;9.43;75.23;99768.50;5071198;28;20052;-66
2023/03/14 10:31:58;;;;;;;31.98;7.57;;;9.30;99.90;;;9.30;72.71;99752.03;5070975;28;20047;-66
2023/03/14 10:34:29;;;;;;;37.75;8.68;;;9.40;99.90;;;9.65;73.91;99777.81;5070552;28;20436;-66
2023/03/14 10:37:00;;;;;;;;;;;9.50;99.90;;;9.75;72.38;99784.66;5069858;28;20367;-66
2023/03/14 10:39:43;;;;;;;42.97;8.70;;;9.60;99.90;;;9.80;71.62;99791.59;5070987;28;19936;-66
2023/03/14 10:42:22;;;;;;;30.27;7.20;;;9.70;99.90;;;9.91;70.58;99808.09;5070739;28;20049;-67
2023/03/14 10:44:56;;;;;;;45.20;8.93;;;9.80;99.90;;;10.01;69.77;99801.75;5070956;28;20089;-67
2023/03/14 10:47:28;;;;;;;32.58;8.20;;;9.90;99.90;;;10.08;68.47;99822.75;5070711;28;20150;-66
2023/03/14 10:49:57;;;;;;;37.38;8.00;;;10.00;99.90;;;9.88;67.40;99829.28;5070534;28;20408;-66
2023/03/14 10:52:27;;;;;;;35.55;8.60;;;9.90;99.90;;;9.95;67.19;99849.41;5070610;28;20051;-67
2023/03/14 10:55:16;;;;;;;40.58;7.95;;;9.90;99.90;;;10.01;67.37;99856.34;5070345;28;20048;-66
2023/03/14 10:57:46;;;;;;;32.13;7.88;;;9.90;99.90;;;9.27;66.83;99746.78;5070713;28;20139;-67
2023/03/14 11:00:18;;;;;;;33.42;7.72;;;9.90;99.90;;;9.59;66.80;99865.91;5070416;28;20131;-67